createdAt,value
2018-04-02T00:01:35.162Z,10.30
2018-04-02T00:04:04.880Z,11.70
2018-04-02T00:06:35.011Z,12.13
2018-04-02T00:09:03.367Z,11.37
2018-04-02T00:11:33.477Z,11.53
2018-04-02T00:14:01.898Z,12.03
2018-04-02T00:16:30.288Z,12.87
2018-04-02T00:18:59.909Z,11.70
2018-04-02T00:21:29.244Z,12.77
2018-04-02T00:23:58.424Z,13.03
2018-04-02T00:26:27.237Z,13.50
2018-04-02T00:28:55.618Z,13.43
2018-04-02T00:31:25.116Z,13.17
2018-04-02T00:33:53.889Z,13.63
2018-04-02T00:36:23.464Z,15.47
2018-04-02T00:38:53.676Z,14.30
2018-04-02T00:41:22.006Z,16.40
2018-04-02T00:43:51.196Z,15.90
2018-04-02T00:46:19.565Z,17.27
2018-04-02T00:48:48.415Z,16.90
2018-04-02T00:51:19.554Z,17.67
2018-04-02T00:53:47.913Z,17.63
2018-04-02T00:56:17.062Z,17.90
2018-04-02T00:58:46.849Z,18.83
2018-04-02T01:01:15.319Z,19.50
2018-04-02T01:03:45.515Z,19.30
2018-04-02T01:06:15.265Z,20.00
2018-04-02T01:08:45.124Z,18.40
2018-04-02T01:11:14.273Z,19.03
2018-04-02T01:13:43.029Z,19.43
2018-04-02T01:16:12.333Z,19.90
2018-04-02T01:18:40.925Z,19.57
2018-04-02T01:21:10.794Z,18.50
2018-04-02T01:23:39.110Z,19.20
2018-04-02T01:26:08.951Z,19.47
2018-04-02T01:28:37.609Z,19.87
2018-04-02T01:31:07.111Z,20.73
2018-04-02T01:33:35.469Z,21.53
2018-04-02T01:36:05.022Z,20.67
2018-04-02T01:38:34.143Z,24.03
2018-04-02T01:41:02.871Z,25.37
2018-04-02T01:43:31.513Z,26.43
2018-04-02T01:45:59.905Z,29.70
2018-04-02T01:48:28.720Z,30.83
2018-04-02T01:50:58.201Z,32.40
2018-04-02T01:53:27.357Z,34.23
2018-04-02T01:55:57.086Z,36.27
2018-04-02T01:58:25.550Z,36.53
2018-04-02T02:00:54.637Z,36.27
2018-04-02T02:03:24.895Z,36.20
2018-04-02T02:05:53.291Z,37.70
2018-04-02T02:08:23.444Z,33.93
2018-04-02T02:10:51.867Z,34.10
2018-04-02T02:13:20.399Z,34.17
2018-04-02T02:15:48.734Z,34.33
2018-04-02T02:18:18.377Z,34.30
2018-04-02T02:20:46.720Z,33.77
2018-04-02T02:23:15.042Z,33.33
2018-04-02T02:25:43.412Z,33.23
2018-04-02T02:28:12.439Z,32.10
2018-04-02T02:30:41.897Z,32.83
2018-04-02T02:33:11.202Z,32.13
2018-04-02T02:35:40.572Z,32.27
2018-04-02T02:38:09.392Z,31.47
2018-04-02T02:40:38.744Z,31.50
2018-04-02T02:43:07.073Z,31.43
2018-04-02T02:45:35.590Z,29.83
2018-04-02T02:48:05.606Z,31.77
2018-04-02T02:50:33.976Z,30.53
2018-04-02T02:53:04.537Z,30.87
2018-04-02T02:55:32.913Z,30.43
2018-04-02T02:58:01.897Z,31.40
2018-04-02T03:00:30.283Z,31.37
2018-04-02T03:02:58.790Z,31.43
2018-04-02T03:05:27.360Z,29.53
2018-04-02T03:07:56.712Z,28.93
2018-04-02T03:10:25.725Z,29.00
2018-04-02T03:12:55.001Z,31.87
2018-04-02T03:15:24.535Z,31.13
2018-04-02T03:17:55.939Z,30.87
2018-04-02T03:20:24.542Z,29.97
2018-04-02T03:22:53.344Z,32.47
2018-04-02T03:25:21.996Z,30.73
2018-04-02T03:27:52.055Z,31.63
2018-04-02T03:30:20.440Z,32.87
2018-04-02T03:32:49.063Z,31.83
2018-04-02T03:35:18.232Z,32.77
2018-04-02T03:37:47.437Z,34.03
2018-04-02T03:40:16.161Z,33.40
2018-04-02T03:42:45.436Z,35.60
2018-04-02T03:45:14.518Z,35.27
2018-04-02T03:47:42.873Z,34.83
2018-04-02T03:50:12.502Z,36.33
2018-04-02T03:52:41.646Z,37.53
2018-04-02T03:55:10.696Z,36.27
2018-04-02T03:57:39.230Z,35.33
2018-04-02T04:00:08.362Z,35.03
2018-04-02T04:02:38.220Z,36.23
2018-04-02T04:05:08.485Z,35.60
2018-04-02T04:07:37.736Z,34.77
2018-04-02T04:10:07.158Z,35.53
2018-04-02T04:12:35.773Z,35.60
2018-04-02T04:15:05.023Z,36.97
2018-04-02T04:17:34.026Z,36.87
2018-04-02T04:20:03.704Z,36.10
2018-04-02T04:22:32.860Z,36.43
2018-04-02T04:25:01.724Z,34.53
2018-04-02T04:27:30.748Z,36.50
2018-04-02T04:30:00.108Z,38.80
2018-04-02T04:32:28.942Z,35.80
2018-04-02T04:34:59.048Z,36.40
2018-04-02T04:37:27.373Z,37.10
2018-04-02T04:39:55.790Z,37.97
2018-04-02T04:42:25.831Z,35.43
2018-04-02T04:44:55.009Z,36.17
2018-04-02T04:47:23.594Z,37.73
2018-04-02T04:49:52.765Z,35.53
2018-04-02T04:52:22.148Z,36.03
2018-04-02T04:54:51.975Z,35.70
2018-04-02T04:57:21.082Z,36.23
2018-04-02T04:59:50.676Z,37.60
2018-04-02T05:02:21.847Z,34.93
2018-04-02T05:04:51.120Z,35.67
2018-04-02T05:07:21.012Z,34.63
2018-04-02T05:09:50.182Z,35.80
2018-04-02T05:12:19.358Z,34.13
2018-04-02T05:14:47.630Z,35.10
2018-04-02T05:17:16.406Z,35.73
2018-04-02T05:19:45.208Z,34.90
2018-04-02T05:22:14.523Z,36.73
2018-04-02T05:24:43.683Z,34.77
2018-04-02T05:27:12.041Z,35.13
2018-04-02T05:29:40.577Z,37.77
2018-04-02T05:32:10.669Z,36.40
2018-04-02T05:34:39.517Z,37.37
2018-04-02T05:37:08.673Z,38.63
2018-04-02T05:39:38.444Z,37.50
2018-04-02T05:42:08.659Z,37.23
2018-04-02T05:44:36.987Z,37.37
2018-04-02T05:47:05.346Z,34.90
2018-04-02T05:49:34.944Z,36.30
2018-04-02T05:52:03.869Z,34.93
2018-04-02T05:54:32.265Z,36.13
2018-04-02T05:57:00.680Z,36.97
2018-04-02T05:59:29.342Z,37.83
2018-04-02T06:01:58.276Z,37.37
2018-04-02T06:04:28.631Z,38.77
2018-04-02T06:06:59.351Z,39.00
2018-04-02T06:09:28.625Z,37.73
2018-04-02T06:11:58.883Z,38.23
2018-04-02T06:14:27.684Z,39.27
2018-04-02T06:16:56.421Z,37.93
2018-04-02T06:19:25.533Z,35.13
2018-04-02T06:21:54.657Z,35.00
2018-04-02T06:24:23.840Z,36.00
2018-04-02T06:26:53.213Z,34.80
2018-04-02T06:29:21.729Z,35.03
2018-04-02T06:31:51.048Z,36.97
2018-04-02T06:34:19.357Z,34.00
2018-04-02T06:36:48.566Z,35.27
2018-04-02T06:39:18.589Z,34.67
2018-04-02T06:41:47.688Z,35.43
2018-04-02T06:44:17.469Z,32.90
2018-04-02T06:46:46.189Z,31.13
2018-04-02T06:49:15.381Z,29.77
2018-04-02T06:51:44.583Z,30.80
2018-04-02T06:54:14.090Z,27.90
2018-04-02T06:56:43.117Z,28.27
2018-04-02T06:59:11.814Z,28.43
2018-04-02T07:01:40.456Z,28.57
2018-04-02T07:04:08.785Z,27.57
2018-04-02T07:06:37.350Z,29.47
2018-04-02T07:09:07.270Z,25.80
2018-04-02T07:11:37.332Z,28.77
2018-04-02T07:14:08.229Z,28.27
2018-04-02T07:16:37.661Z,26.60
2018-04-02T07:19:07.479Z,27.17
2018-04-02T07:21:37.920Z,26.50
2018-04-02T07:24:06.837Z,26.30
2018-04-02T07:26:36.220Z,27.10
2018-04-02T07:29:04.990Z,26.20
2018-04-02T07:31:34.403Z,25.67
2018-04-02T07:34:04.660Z,28.27
2018-04-02T07:36:33.006Z,27.33
2018-04-02T07:39:03.880Z,26.00
2018-04-02T07:41:32.982Z,25.87
2018-04-02T07:44:02.332Z,28.87
2018-04-02T07:46:31.573Z,27.67
2018-04-02T07:49:00.966Z,24.67
2018-04-02T07:51:30.104Z,25.57
2018-04-02T07:53:58.729Z,24.73
2018-04-02T07:56:28.637Z,24.97
2018-04-02T07:58:58.991Z,25.70
2018-04-02T08:01:27.394Z,23.87
2018-04-02T08:03:56.465Z,24.07
2018-04-02T08:06:25.696Z,21.60
2018-04-02T08:08:54.376Z,23.30
2018-04-02T08:11:23.204Z,23.57
2018-04-02T08:13:52.986Z,20.57
2018-04-02T08:16:21.588Z,22.93
2018-04-02T08:18:49.964Z,22.77
2018-04-02T08:21:19.890Z,24.43
2018-04-02T08:23:49.054Z,20.93
2018-04-02T08:26:18.354Z,21.20
2018-04-02T08:28:46.938Z,20.60
2018-04-02T08:31:17.395Z,22.03
2018-04-02T08:33:48.175Z,22.00
2018-04-02T08:36:16.967Z,22.10
2018-04-02T08:38:46.277Z,23.73
2018-04-02T08:41:15.883Z,21.80
2018-04-02T08:43:45.600Z,22.73
2018-04-02T08:46:15.380Z,22.23
2018-04-02T08:48:44.658Z,22.20
2018-04-02T08:51:14.215Z,20.23
2018-04-02T08:53:44.369Z,22.93
2018-04-02T08:56:13.774Z,19.57
2018-04-02T08:58:42.103Z,20.77
2018-04-02T09:01:12.285Z,23.90
2018-04-02T09:03:41.463Z,20.73
2018-04-02T09:06:11.459Z,20.23
2018-04-02T09:08:41.459Z,20.83
2018-04-02T09:11:09.782Z,19.10
2018-04-02T09:13:38.139Z,18.67
2018-04-02T09:16:06.536Z,18.80
2018-04-02T09:18:34.886Z,18.40
2018-04-02T09:21:03.303Z,18.90
2018-04-02T09:23:31.894Z,19.83
2018-04-02T09:26:00.646Z,18.47
2018-04-02T09:28:29.054Z,18.17
2018-04-02T09:30:58.812Z,19.57
2018-04-02T09:33:29.078Z,18.40
2018-04-02T09:35:58.158Z,17.67
2018-04-02T09:38:26.559Z,18.90
2018-04-02T09:40:55.291Z,18.10
2018-04-02T09:43:23.660Z,18.53
2018-04-02T09:45:52.689Z,17.20
2018-04-02T09:48:21.185Z,18.80
2018-04-02T09:50:49.617Z,15.97
2018-04-02T09:53:20.583Z,15.47
2018-04-02T09:55:48.953Z,14.93
2018-04-02T09:58:18.132Z,15.63
2018-04-02T10:00:46.574Z,15.00
2018-04-02T10:03:16.139Z,15.40
2018-04-02T10:05:44.513Z,15.87
2018-04-02T10:08:14.211Z,15.27
2018-04-02T10:10:43.341Z,16.70
2018-04-02T10:13:12.630Z,15.77
2018-04-02T10:15:41.950Z,14.70
2018-04-02T10:18:10.317Z,16.17
2018-04-02T10:20:39.351Z,15.30
2018-04-02T10:23:09.639Z,15.23
2018-04-02T10:25:39.151Z,15.80
2018-04-02T10:28:08.410Z,15.20
2018-04-02T10:30:37.899Z,15.83
2018-04-02T10:33:06.308Z,15.17
2018-04-02T10:35:35.490Z,14.50
2018-04-02T10:38:05.717Z,14.70
2018-04-02T10:40:34.400Z,14.50
2018-04-02T10:43:04.521Z,13.67
2018-04-02T10:45:33.164Z,13.50
2018-04-02T10:48:02.321Z,11.97
2018-04-02T10:50:30.931Z,13.53
2018-04-02T10:53:00.123Z,13.10
2018-04-02T10:55:29.131Z,12.77
2018-04-02T10:58:01.369Z,12.97
2018-04-02T11:00:29.762Z,12.67
2018-04-02T11:02:59.302Z,12.10
2018-04-02T11:05:28.648Z,13.27
2018-04-02T11:07:57.086Z,12.60
2018-04-02T11:10:26.450Z,12.57
2018-04-02T11:12:54.817Z,12.03
2018-04-02T11:15:23.192Z,11.77
2018-04-02T11:17:53.097Z,11.37
2018-04-02T11:20:23.104Z,11.23
2018-04-02T11:22:52.298Z,12.57
2018-04-02T11:25:20.954Z,13.30
2018-04-02T11:27:49.368Z,12.87
2018-04-02T11:30:19.283Z,12.97
2018-04-02T11:32:49.515Z,11.90
2018-04-02T11:35:18.739Z,12.27
2018-04-02T11:37:48.013Z,11.77
2018-04-02T11:40:16.632Z,13.07
2018-04-02T11:42:45.526Z,12.03
2018-04-02T11:45:13.890Z,12.37
2018-04-02T11:47:42.978Z,13.73
2018-04-02T11:50:12.166Z,10.10
2018-04-02T11:52:41.283Z,11.87
2018-04-02T11:55:09.621Z,12.70
2018-04-02T11:57:37.961Z,12.23
2018-04-02T12:00:07.786Z,13.73
2018-04-02T12:02:36.318Z,11.67
2018-04-02T12:05:04.942Z,11.07
2018-04-02T12:07:33.324Z,11.23
2018-04-02T12:10:01.671Z,12.87
2018-04-02T12:12:30.057Z,11.97
2018-04-02T12:14:58.390Z,11.67
2018-04-02T12:17:27.983Z,10.33
2018-04-02T12:19:56.366Z,11.03
2018-04-02T12:22:24.768Z,8.87
2018-04-02T12:24:54.018Z,9.37
2018-04-02T12:27:23.835Z,9.03
2018-04-02T12:29:53.047Z,9.43
2018-04-02T12:32:22.515Z,9.10
2018-04-02T12:34:51.482Z,8.60
2018-04-02T12:37:19.832Z,8.90
2018-04-02T12:39:49.186Z,8.70
2018-04-02T12:42:17.549Z,9.10
2018-04-02T12:44:47.554Z,9.10
2018-04-02T12:47:15.959Z,9.50
2018-04-02T12:49:45.677Z,10.07
2018-04-02T12:52:14.034Z,8.30
2018-04-02T12:54:42.423Z,10.57
2018-04-02T12:57:11.680Z,8.67
2018-04-02T12:59:40.859Z,12.10
2018-04-02T13:02:09.852Z,9.50
2018-04-02T13:04:38.247Z,9.17
2018-04-02T13:07:07.512Z,9.43
2018-04-02T13:09:36.620Z,8.53
2018-04-02T13:12:04.939Z,7.70
2018-04-02T13:14:34.201Z,8.67
2018-04-02T13:17:02.560Z,7.70
2018-04-02T13:19:30.967Z,7.30
2018-04-02T13:21:59.335Z,6.60
2018-04-02T13:24:27.966Z,7.63
2018-04-02T13:26:57.161Z,7.80
2018-04-02T13:29:26.198Z,8.00
2018-04-02T13:31:55.362Z,7.20
2018-04-02T13:34:24.441Z,6.77
2018-04-02T13:36:52.769Z,7.00
2018-04-02T13:39:21.119Z,6.77
2018-04-02T13:41:50.252Z,6.60
2018-04-02T13:44:18.633Z,5.57
2018-04-02T13:46:47.005Z,5.43
2018-04-02T13:49:15.427Z,6.33
2018-04-02T13:51:44.597Z,5.33
2018-04-02T13:54:14.336Z,5.87
2018-04-02T13:56:43.465Z,5.67
2018-04-02T13:59:12.849Z,5.20
2018-04-02T14:01:41.170Z,5.70
2018-04-02T14:04:09.882Z,4.97
2018-04-02T14:06:38.209Z,5.47
2018-04-02T14:09:09.296Z,4.90
2018-04-02T14:11:39.139Z,4.87
2018-04-02T14:14:07.477Z,4.53
2018-04-02T14:16:35.849Z,5.10
2018-04-02T14:19:05.046Z,5.00
2018-04-02T14:21:34.239Z,4.20
2018-04-02T14:24:02.926Z,4.37
2018-04-02T14:26:32.314Z,4.77
2018-04-02T14:29:00.665Z,4.67
2018-04-02T14:31:28.994Z,4.70
2018-04-02T14:33:57.389Z,4.47
2018-04-02T14:36:26.567Z,4.17
2018-04-02T14:38:54.954Z,4.43
2018-04-02T14:41:23.327Z,3.60
2018-04-02T14:43:52.577Z,4.33
2018-04-02T14:46:22.139Z,4.10
2018-04-02T14:48:50.484Z,3.93
2018-04-02T14:51:18.809Z,3.90
2018-04-02T14:53:47.220Z,4.20
2018-04-02T14:56:16.667Z,3.67
2018-04-02T14:58:46.839Z,4.00
2018-04-02T15:01:15.820Z,3.60
2018-04-02T15:03:44.936Z,3.90
2018-04-02T15:06:13.302Z,3.70
2018-04-02T15:08:41.680Z,3.90
2018-04-02T15:11:10.870Z,4.20
2018-04-02T15:13:39.254Z,4.13
2018-04-02T15:16:08.409Z,4.30
2018-04-02T15:18:36.816Z,4.20
2018-04-02T15:21:05.718Z,3.90
2018-04-02T15:23:35.250Z,3.30
2018-04-02T15:26:04.631Z,3.93
2018-04-02T15:28:33.318Z,3.50
2018-04-02T15:31:01.908Z,3.87
2018-04-02T15:33:30.778Z,3.33
2018-04-02T15:35:59.453Z,3.50
2018-04-02T15:38:27.827Z,4.67
2018-04-02T15:40:57.823Z,3.40
2018-04-02T15:43:26.900Z,3.90
2018-04-02T15:45:56.073Z,3.60
2018-04-02T15:48:24.462Z,3.30
2018-04-02T15:50:53.227Z,4.10
2018-04-02T15:53:21.952Z,3.43
2018-04-02T15:55:51.374Z,3.20
2018-04-02T15:58:20.000Z,4.33
2018-04-02T16:00:48.375Z,4.03
2018-04-02T16:03:18.247Z,3.30
2018-04-02T16:05:47.645Z,3.50
2018-04-02T16:08:16.948Z,2.73
2018-04-02T16:10:45.413Z,3.13
2018-04-02T16:13:14.891Z,4.70
2018-04-02T16:15:43.277Z,2.80
2018-04-02T16:18:12.326Z,2.70
2018-04-02T16:20:40.707Z,3.73
2018-04-02T16:23:09.917Z,2.37
2018-04-02T16:25:38.342Z,4.20
2018-04-02T16:28:07.467Z,2.70
2018-04-02T16:30:36.093Z,2.80
2018-04-02T16:33:05.325Z,3.57
2018-04-02T16:35:33.684Z,2.90
2018-04-02T16:38:02.042Z,3.63
2018-04-02T16:40:31.759Z,2.70
2018-04-02T16:43:00.171Z,2.17
2018-04-02T16:45:28.550Z,2.60
2018-04-02T16:47:57.765Z,2.13
2018-04-02T16:53:40.386Z,2.73
2018-04-02T16:56:09.028Z,2.70
2018-04-02T16:58:39.337Z,2.10
2018-04-02T17:01:09.432Z,1.93
2018-04-02T17:03:38.184Z,1.90
2018-04-02T17:06:07.417Z,2.70
2018-04-02T17:08:36.713Z,2.10
2018-04-02T17:11:06.927Z,1.90
2018-04-02T17:13:35.978Z,1.97
2018-04-02T17:16:04.312Z,1.67
2018-04-02T17:18:32.715Z,1.93
2018-04-02T17:21:02.805Z,1.70
2018-04-02T17:23:31.198Z,1.60
2018-04-02T17:26:00.318Z,1.70
2018-04-02T17:28:29.716Z,1.53
2018-04-02T17:30:58.773Z,1.70
2018-04-02T17:33:28.931Z,1.87
2018-04-02T17:35:58.273Z,1.90
2018-04-02T17:38:27.365Z,2.50
2018-04-02T17:40:56.833Z,2.37
2018-04-02T17:43:25.230Z,2.60
2018-04-02T17:45:54.078Z,2.03
2018-04-02T17:48:23.156Z,2.40
2018-04-02T17:50:53.072Z,1.60
2018-04-02T17:53:21.483Z,2.63
2018-04-02T17:55:49.907Z,3.60
2018-04-02T17:58:19.636Z,2.00
2018-04-02T18:00:47.958Z,2.07
2018-04-02T18:03:17.635Z,2.00
2018-04-02T18:05:46.300Z,1.70
2018-04-02T18:08:15.433Z,1.80
2018-04-02T18:10:44.152Z,1.70
2018-04-02T18:13:13.413Z,1.90
2018-04-02T18:15:43.389Z,1.93
2018-04-02T18:18:11.770Z,2.10
2018-04-02T18:20:40.235Z,2.43
2018-04-02T18:23:08.602Z,2.53
2018-04-02T18:25:38.398Z,2.00
2018-04-02T18:28:07.698Z,2.43
2018-04-02T18:30:36.816Z,2.47
2018-04-02T18:33:06.115Z,2.27
2018-04-02T18:35:37.854Z,2.30
2018-04-02T18:38:06.660Z,2.00
2018-04-02T18:40:35.011Z,1.97
2018-04-02T18:43:04.013Z,2.00
2018-04-02T18:45:32.842Z,2.07
2018-04-02T18:48:01.899Z,1.63
2018-04-02T18:50:30.287Z,1.67
2018-04-02T18:52:59.598Z,1.60
2018-04-02T18:55:29.092Z,1.30
2018-04-02T18:57:58.242Z,1.60
2018-04-02T19:00:27.252Z,1.47
2018-04-02T19:02:56.549Z,1.63
2018-04-02T19:05:26.088Z,1.70
2018-04-02T19:07:55.300Z,1.50
2018-04-02T19:10:24.802Z,1.53
2018-04-02T19:12:55.216Z,1.60
2018-04-02T19:15:24.360Z,1.37
2018-04-02T19:17:52.959Z,1.60
2018-04-02T19:20:22.575Z,1.50
2018-04-02T19:22:52.542Z,1.57
2018-04-02T19:25:22.675Z,1.73
2018-04-02T19:27:52.778Z,1.37
2018-04-02T19:30:21.167Z,1.43
2018-04-02T19:32:50.723Z,1.70
2018-04-02T19:35:20.168Z,1.77
2018-04-02T19:37:48.939Z,1.53
2018-04-02T19:40:19.592Z,1.53
2018-04-02T19:42:47.921Z,1.33
2018-04-02T19:45:17.167Z,1.50
2018-04-02T19:47:45.523Z,1.43
2018-04-02T19:50:14.341Z,1.43
2018-04-02T19:52:43.569Z,1.50
2018-04-02T19:55:12.101Z,1.50
2018-04-02T19:57:40.424Z,1.40
2018-04-02T20:00:09.533Z,1.40
2018-04-02T20:02:39.928Z,1.50
2018-04-02T20:05:09.256Z,1.60
2018-04-02T20:07:38.614Z,1.80
2018-04-02T20:10:07.232Z,1.73
2018-04-02T20:12:36.629Z,2.10
2018-04-02T20:15:05.553Z,1.47
2018-04-02T20:17:33.912Z,1.50
2018-04-02T20:20:02.896Z,1.50
2018-04-02T20:22:31.315Z,1.53
2018-04-02T20:25:00.809Z,1.30
2018-04-02T20:27:29.413Z,1.53
2018-04-02T20:29:58.767Z,1.40
2018-04-02T20:32:27.176Z,1.30
2018-04-02T20:34:55.874Z,1.60
2018-04-02T20:37:24.580Z,1.50
2018-04-02T20:39:53.932Z,1.40
2018-04-02T20:42:22.383Z,1.50
2018-04-02T20:44:52.111Z,1.37
2018-04-02T20:47:23.995Z,1.50
2018-04-02T20:49:53.256Z,1.60
2018-04-02T20:52:22.516Z,1.47
2018-04-02T20:54:51.592Z,1.23
2018-04-02T20:57:19.994Z,1.10
2018-04-02T20:59:48.606Z,1.30
2018-04-02T21:02:18.592Z,1.23
2018-04-02T21:04:47.013Z,1.27
2018-04-02T21:07:17.650Z,1.20
2018-04-02T21:09:46.895Z,1.50
2018-04-02T21:12:20.810Z,1.30
2018-04-02T21:14:49.785Z,1.40
2018-04-02T21:17:19.899Z,1.50
2018-04-02T21:19:48.270Z,1.47
2018-04-02T21:22:16.987Z,1.77
2018-04-02T21:24:46.754Z,1.20
2018-04-02T21:27:15.570Z,1.50
2018-04-02T21:29:43.972Z,1.37
2018-04-02T21:32:13.285Z,1.60
2018-04-02T21:34:42.540Z,1.30
2018-04-02T21:37:11.977Z,1.23
2018-04-02T21:39:40.629Z,1.23
2018-04-02T21:42:10.788Z,1.63
2018-04-02T21:44:40.002Z,1.30
2018-04-02T21:47:10.708Z,1.30
2018-04-02T21:49:39.105Z,1.20
2018-04-02T21:52:07.704Z,1.50
2018-04-02T21:54:38.525Z,1.80
2018-04-02T21:57:08.514Z,1.50
2018-04-02T21:59:36.897Z,1.33
2018-04-02T22:02:07.291Z,1.30
2018-04-02T22:04:35.684Z,1.60
2018-04-02T22:07:07.181Z,1.43
2018-04-02T22:09:36.361Z,1.57
2018-04-02T22:12:06.435Z,1.40
2018-04-02T22:14:35.537Z,1.30
2018-04-02T22:17:03.861Z,1.60
2018-04-02T22:19:32.259Z,1.60
2018-04-02T22:22:02.423Z,1.63
2018-04-02T22:24:32.248Z,1.70
2018-04-02T22:27:00.845Z,1.50
2018-04-02T22:29:30.363Z,1.60
2018-04-02T22:31:58.692Z,1.63
2018-04-02T22:34:27.739Z,1.70
2018-04-02T22:36:56.826Z,1.40
2018-04-02T22:39:26.021Z,1.40
2018-04-02T22:41:55.162Z,1.90
2018-04-02T22:44:23.715Z,1.80
2018-04-02T22:46:52.230Z,1.50
2018-04-02T22:49:20.810Z,1.70
2018-04-02T22:51:49.348Z,1.67
2018-04-02T22:54:17.723Z,1.80
2018-04-02T22:56:47.747Z,1.80
2018-04-02T22:59:16.750Z,1.60
2018-04-02T23:01:46.169Z,1.60
2018-04-02T23:04:15.414Z,1.33
2018-04-02T23:06:45.595Z,2.10
2018-04-02T23:09:14.779Z,1.90
2018-04-02T23:11:43.133Z,1.80
2018-04-02T23:14:12.612Z,2.20
2018-04-02T23:16:42.061Z,2.10
2018-04-02T23:19:11.498Z,1.93
2018-04-02T23:21:40.768Z,2.23
2018-04-02T23:24:09.370Z,2.10
2018-04-02T23:26:39.333Z,2.20
2018-04-02T23:29:09.236Z,2.27
2018-04-02T23:31:38.457Z,2.40
2018-04-02T23:34:08.907Z,2.30
2018-04-02T23:36:37.638Z,2.30
2018-04-02T23:39:07.470Z,2.70
2018-04-02T23:41:36.178Z,2.70
2018-04-02T23:44:04.523Z,2.63
2018-04-02T23:46:34.109Z,2.60
2018-04-02T23:49:04.353Z,2.80
2018-04-02T23:51:34.272Z,2.53
2018-04-02T23:54:02.782Z,2.70
2018-04-02T23:56:31.855Z,2.40
2018-04-02T23:59:00.970Z,2.80
